DIRECCIÓN GENERAL DE AERONÁUTICA CIVIL
DIRECCIÓN METEOROLÓGICA DE CHILE
INFORMACIÓN METAR Y TAF

FIR SANTIAGO

Estación: SCSE
METAR SCSE 291100Z 16005KT 8000 VCFG NSC 10/05 Q1013=

TAF SCSE 291027Z 2912/3012 13005KT CAVOK TX17/2918Z TN08/3010Z BECMG 2914/2916 31008KT BECMG 3002/3004 VRB02KT TEMPO 3006/3012 14005KT=

Estación: SCER
NIL=

NIL=

Estación: SCRD
METAR SCRD 282200Z 15006KT CAVOK 13/09 Q1017=

TAF SCRD 291032Z 2912/2924 VRB02KT CAVOK TX19/2918Z TN08/2912Z BECMG 2916/2918 20008KT=

Estación: SCVM
METAR SCVM 291100Z 14005KT CAVOK 10/08 Q1015=

TAF SCVM 291028Z 2912/3012 VRB02KT CAVOK TX19/2918Z TN10/3011Z TEMPO 2912/2914 3000 BR BKN010 BECMG 2918/2920 33010KT TEMPO 2919/2923 21005KT BECMG 3000/3002 VRB02KT=

Estación: SCTB
METAR SCTB 291100Z 3400KT 5000 HZ FEW120 06/04 Q1016=

TAF SCTB 291107Z 2912/2924 VRB02KT 5000 HZ NSC TX16/2918Z TN07/2912Z BECMG 2917/2919 23004KT 7000=

Estación: SCEL
METAR SCEL 291100Z 04003KT 350V120 0300 R17L/0375N R17R/0350N FG VV002 03/03 Q1016 NOSIG=

TAF SCEL 291028Z 2912/3012 VRB02KT 0600 FG NSC TX18/2919Z TN06/3011Z BECMG 2913/2915 3000 BR BECMG 2915/2917 16005KT 5000 HZ BECMG 2917/2919 18008KT 8000 BECMG 3002/3004 14005KT TEMPO 3005/3012 VRB02KT 2000 BR=

Estación: SCSN
METAR SCSN 291100Z 17003KT 5000 BR SKC 08/07 Q1015=

TAF SCSN 291106Z 2912/2924 VRB02KT 5000 BR NSC TX16/2918Z TN09/2912Z TEMPO 2912/2914 2000 BR BKN002 BECMG 2917/2919 24005KT CAVOK=

Estación: SCRG
METAR SCRG 282000Z 16010KT 4000 HZ BKN025 OVC100 12/10 Q1017=

TAF SCRG 291032Z 2912/2924 VRB02KT 4000 BR NSC TX15/2919Z TN09/2912Z TEMPO 2912/2914 1000 BR OVC005 BECMG 2915/2917 20005KT CAVOK=

Estación: SCIC
METAR SCIC 291100Z AUTO VRB02KT 0150 R/////// FG VV002 06/06 Q1016=

TAF SCIC 291033Z 2912/2924 VRB02KT 0200 FG OVC002 TX15/2918Z TN08/ 2912Z BECMG 2914/2916 2000 BR BKN010 BECMG 2916/2918 20005KT 5000 BR NSC BECMG 2918/2920 CAVOK=

Estación: SCCH
METAR SCCH 282200Z 03006KT 9999 BKN015 12/10 Q1018=

TAF SCCH 291033Z 2912/2924 03005KT 9999 SCT030 SCT120 TX16/2918Z TN09/2912Z TEMPO 2916/2920 35010KT 9999 SCT030 BKN150=

Estación: SCIE
METAR SCIE 291100Z 14004KT 100V160 CAVOK 08/07 Q1017=

TAF SCIE 291030Z 2912/3012 16005KT 9999 SCT015 TX16/2918Z TN08/3011Z BECMG 2914/2916 02008KT CAVOK BECMG 2920/2922 35010KT SCT020 BKN150 TEMPO 3007/3012 5000 SHRA BKN010 BKN100=

Estación: SCGE
METAR SCGE 282100Z 01007KT 9999 BKN012 SCT030 14/11 Q1017=

TAF SCGE 291033Z 2912/2924 01008KT 9999 SCT020 SCT100 TX16/2918Z TN08/2912Z TEMPO 2916/2920 32010KT SCT030 BKN150=


Volver